createdAt,value
2023-02-02T00:00:49.569Z,3.63
2023-02-02T00:03:17.905Z,3.60
2023-02-02T00:05:49.294Z,3.73
2023-02-02T00:08:16.596Z,4.50
2023-02-02T00:10:44.829Z,4.53
2023-02-02T00:13:12.025Z,4.33
2023-02-02T00:15:38.998Z,4.97
2023-02-02T00:18:06.845Z,3.83
2023-02-02T00:20:35.165Z,4.33
2023-02-02T00:23:02.735Z,3.20
2023-02-02T00:25:30.235Z,3.87
2023-02-02T00:27:57.197Z,3.67
2023-02-02T00:30:24.331Z,3.27
2023-02-02T00:32:53.007Z,4.17
2023-02-02T00:35:20.327Z,4.40
2023-02-02T00:37:48.575Z,3.67
2023-02-02T00:40:15.690Z,3.60
2023-02-02T00:42:43.413Z,3.30
2023-02-02T00:45:17.257Z,3.47
2023-02-02T00:47:47.174Z,4.87
2023-02-02T00:50:17.723Z,3.80
2023-02-02T00:52:45.377Z,3.70
2023-02-02T00:55:15.603Z,4.17
2023-02-02T00:57:44.173Z,4.00
2023-02-02T01:00:16.043Z,3.67
2023-02-02T01:02:43.355Z,3.77
2023-02-02T01:05:12.045Z,4.50
2023-02-02T01:07:39.229Z,3.53
2023-02-02T01:10:10.774Z,4.33
2023-02-02T01:12:38.943Z,3.53
2023-02-02T01:15:07.532Z,3.40
2023-02-02T01:17:34.637Z,3.60
2023-02-02T01:20:01.627Z,4.03
2023-02-02T01:22:28.536Z,3.43
2023-02-02T01:24:55.416Z,3.60
2023-02-02T01:27:22.296Z,2.87
2023-02-02T01:29:50.465Z,3.43
2023-02-02T01:32:17.448Z,3.23
2023-02-02T01:34:44.411Z,2.70
2023-02-02T01:37:11.564Z,3.07
2023-02-02T01:39:38.414Z,2.90
2023-02-02T01:42:14.067Z,3.03
2023-02-02T01:45:12.939Z,3.77
2023-02-02T01:47:47.381Z,3.70
2023-02-02T01:50:17.526Z,3.43
2023-02-02T01:52:49.859Z,3.43
2023-02-02T01:55:23.012Z,3.63
2023-02-02T01:57:56.763Z,4.30
2023-02-02T02:00:27.542Z,4.00
2023-02-02T02:02:59.866Z,3.47
2023-02-02T02:05:31.947Z,3.93
2023-02-02T02:08:11.888Z,3.60
2023-02-02T02:10:38.985Z,3.93
2023-02-02T02:13:06.880Z,4.43
2023-02-02T02:16:02.400Z,3.70
2023-02-02T02:18:44.281Z,3.60
2023-02-02T02:21:53.619Z,3.67
2023-02-02T02:25:44.005Z,3.70
2023-02-02T02:29:03.464Z,3.70
2023-02-02T02:32:04.612Z,4.17
2023-02-02T02:34:48.388Z,3.57
2023-02-02T02:37:27.525Z,4.23
2023-02-02T02:40:02.525Z,3.57
2023-02-02T02:42:36.339Z,3.37
2023-02-02T02:45:07.500Z,4.13
2023-02-02T02:47:37.298Z,3.93
2023-02-02T02:50:05.917Z,4.37
2023-02-02T02:52:34.640Z,4.30
2023-02-02T02:55:05.407Z,3.33
2023-02-02T02:57:56.650Z,3.17
2023-02-02T03:00:46.221Z,3.37
2023-02-02T03:03:33.357Z,3.43
2023-02-02T03:06:12.387Z,3.30
2023-02-02T03:08:43.921Z,3.90
2023-02-02T03:11:14.110Z,4.37
2023-02-02T03:13:42.830Z,3.57
2023-02-02T03:16:10.315Z,2.77
2023-02-02T03:18:39.430Z,4.17
2023-02-02T03:21:06.751Z,3.17
2023-02-02T03:23:34.377Z,3.73
2023-02-02T03:26:01.813Z,3.10
2023-02-02T03:28:29.421Z,4.07
2023-02-02T03:31:01.178Z,3.67
2023-02-02T03:33:28.514Z,3.50
2023-02-02T03:35:56.665Z,3.57
2023-02-02T03:38:23.560Z,3.07
2023-02-02T03:40:51.381Z,3.80
2023-02-02T03:43:21.450Z,3.43
2023-02-02T03:45:48.607Z,3.80
2023-02-02T03:48:15.497Z,3.03
2023-02-02T03:50:42.347Z,4.10
2023-02-02T03:53:10.558Z,3.47
2023-02-02T03:55:40.394Z,3.87
2023-02-02T03:58:07.501Z,3.43
2023-02-02T04:00:34.550Z,2.90
2023-02-02T04:03:01.566Z,4.17
2023-02-02T04:05:28.602Z,2.90
2023-02-02T04:07:55.611Z,4.37
2023-02-02T04:10:23.829Z,4.03
2023-02-02T04:12:50.936Z,3.87
2023-02-02T04:15:18.240Z,4.07
2023-02-02T04:17:45.147Z,3.73
2023-02-02T04:20:12.533Z,3.60
2023-02-02T04:22:39.432Z,3.90
2023-02-02T04:25:07.604Z,3.93
2023-02-02T04:27:35.915Z,4.07
2023-02-02T04:30:03.381Z,3.73
2023-02-02T04:32:30.450Z,3.73
2023-02-02T04:34:57.339Z,3.83
2023-02-02T04:37:24.424Z,3.80
2023-02-02T04:39:51.295Z,4.00
2023-02-02T04:42:18.241Z,4.47
2023-02-02T04:44:46.522Z,3.57
2023-02-02T04:47:13.453Z,4.30
2023-02-02T04:49:40.351Z,4.23
2023-02-02T04:52:07.380Z,3.70
2023-02-02T04:54:34.504Z,5.67
2023-02-02T04:57:01.429Z,4.50
2023-02-02T04:59:29.936Z,4.43
2023-02-02T05:02:00.038Z,4.30
2023-02-02T05:04:27.417Z,3.60
2023-02-02T05:06:54.433Z,4.53
2023-02-02T05:09:21.353Z,4.77
2023-02-02T05:11:48.260Z,3.50
2023-02-02T05:14:18.308Z,4.03
2023-02-02T05:16:45.450Z,3.63
2023-02-02T05:19:16.697Z,4.17
2023-02-02T05:21:44.719Z,4.13
2023-02-02T05:24:12.474Z,5.80
2023-02-02T05:26:39.562Z,4.97
2023-02-02T05:29:07.500Z,4.40
2023-02-02T05:31:34.576Z,4.93
2023-02-02T05:34:01.820Z,3.93
2023-02-02T05:36:30.082Z,4.13
2023-02-02T05:38:56.987Z,4.27
2023-02-02T05:41:23.966Z,4.07
2023-02-02T05:43:50.800Z,4.47
2023-02-02T05:46:17.699Z,4.30
2023-02-02T05:48:44.657Z,4.90
2023-02-02T05:51:16.929Z,3.93
2023-02-02T05:53:45.356Z,3.87
2023-02-02T05:56:13.094Z,5.00
2023-02-02T05:58:40.017Z,4.77
2023-02-02T06:01:07.090Z,4.47
2023-02-02T06:03:34.354Z,3.77
2023-02-02T06:06:01.556Z,5.43
2023-02-02T06:08:28.445Z,6.87
2023-02-02T06:10:56.621Z,4.90
2023-02-02T06:13:23.550Z,5.13
2023-02-02T06:15:50.423Z,4.77
2023-02-02T06:18:17.436Z,4.20
2023-02-02T06:20:46.127Z,4.37
2023-02-02T06:23:13.033Z,4.67
2023-02-02T06:25:39.927Z,4.97
2023-02-02T06:28:09.379Z,5.70
2023-02-02T06:30:36.291Z,5.73
2023-02-02T06:33:03.267Z,5.63
2023-02-02T06:35:30.279Z,4.27
2023-02-02T06:37:58.140Z,4.17
2023-02-02T06:40:25.167Z,4.93
2023-02-02T06:42:57.145Z,6.60
2023-02-02T06:45:26.326Z,4.17
2023-02-02T06:47:54.054Z,5.57
2023-02-02T06:50:20.961Z,6.33
2023-02-02T06:52:48.770Z,4.87
2023-02-02T06:55:16.826Z,4.00
2023-02-02T06:57:43.794Z,4.67
2023-02-02T07:00:13.276Z,4.47
2023-02-02T07:02:45.706Z,3.57
2023-02-02T07:05:12.622Z,5.40
2023-02-02T07:07:39.533Z,4.67
2023-02-02T07:10:07.666Z,4.37
2023-02-02T07:12:34.546Z,5.10
2023-02-02T07:15:01.577Z,4.53
2023-02-02T07:17:28.755Z,4.03
2023-02-02T07:19:56.974Z,5.07
2023-02-02T07:22:23.981Z,4.17
2023-02-02T07:24:50.872Z,4.13
2023-02-02T07:27:17.828Z,5.27
2023-02-02T07:29:45.351Z,4.33
2023-02-02T07:32:13.317Z,4.30
2023-02-02T07:34:42.280Z,5.63
2023-02-02T07:37:10.942Z,4.30
2023-02-02T07:39:40.077Z,4.93
2023-02-02T07:42:08.520Z,5.87
2023-02-02T07:44:36.449Z,5.97
2023-02-02T07:47:03.347Z,4.67
2023-02-02T07:49:31.458Z,5.17
2023-02-02T07:51:58.405Z,4.63
2023-02-02T07:54:26.631Z,4.87
2023-02-02T07:56:53.553Z,5.17
2023-02-02T07:59:20.852Z,5.63
2023-02-02T08:01:47.885Z,4.30
2023-02-02T08:04:15.593Z,4.83
2023-02-02T08:06:42.537Z,4.63
2023-02-02T08:09:10.190Z,4.97
2023-02-02T08:11:39.051Z,4.43
2023-02-02T08:14:06.885Z,5.93
2023-02-02T08:16:34.614Z,4.73
2023-02-02T08:19:01.901Z,4.77
2023-02-02T08:21:28.945Z,6.37
2023-02-02T08:23:56.439Z,5.13
2023-02-02T08:26:26.149Z,6.50
2023-02-02T08:28:58.072Z,5.10
2023-02-02T08:31:29.227Z,9.80
2023-02-02T08:33:58.462Z,4.80
2023-02-02T08:36:28.360Z,4.83
2023-02-02T08:38:55.699Z,3.80
2023-02-02T08:41:25.389Z,4.87
2023-02-02T08:43:53.721Z,4.47
2023-02-02T08:46:21.916Z,4.60
2023-02-02T08:48:49.450Z,4.30
2023-02-02T08:51:19.693Z,4.83
2023-02-02T08:53:47.872Z,5.23
2023-02-02T08:56:17.977Z,4.10
2023-02-02T08:58:46.650Z,4.83
2023-02-02T09:01:18.379Z,5.30
2023-02-02T09:03:45.828Z,4.43
2023-02-02T09:06:15.810Z,5.60
2023-02-02T09:08:43.615Z,4.80
2023-02-02T09:11:14.032Z,5.07
2023-02-02T09:13:45.409Z,4.90
2023-02-02T09:16:16.451Z,5.33
2023-02-02T09:18:44.809Z,4.83
2023-02-02T09:21:14.943Z,4.33
2023-02-02T09:23:44.401Z,5.37
2023-02-02T09:26:14.392Z,4.90
2023-02-02T09:28:43.937Z,4.67
2023-02-02T09:31:11.676Z,4.13
2023-02-02T09:33:40.999Z,4.47
2023-02-02T09:36:11.369Z,5.73
2023-02-02T09:38:40.233Z,4.57
2023-02-02T09:41:42.235Z,5.60
2023-02-02T09:44:21.757Z,4.70
2023-02-02T09:47:00.991Z,6.90
2023-02-02T09:49:41.311Z,4.03
2023-02-02T09:52:16.230Z,4.53
2023-02-02T09:54:48.286Z,5.00
2023-02-02T09:57:24.669Z,4.23
2023-02-02T09:59:54.375Z,6.17
2023-02-02T10:02:27.212Z,4.23
2023-02-02T10:05:11.818Z,4.43
2023-02-02T10:07:45.743Z,4.07
2023-02-02T10:10:21.419Z,3.93
2023-02-02T10:12:56.238Z,4.67
2023-02-02T10:15:37.173Z,3.80
2023-02-02T10:18:18.338Z,3.77
2023-02-02T10:20:56.225Z,3.77
2023-02-02T10:23:29.037Z,3.40
2023-02-02T10:26:04.325Z,4.37
2023-02-02T10:28:44.404Z,3.53
2023-02-02T10:31:29.659Z,3.47
2023-02-02T10:34:09.777Z,3.60
2023-02-02T10:37:07.832Z,4.80
2023-02-02T10:39:54.669Z,3.43
2023-02-02T10:42:33.971Z,3.80
2023-02-02T10:45:10.784Z,3.93
2023-02-02T10:47:38.492Z,3.93
2023-02-02T10:50:18.782Z,4.37
2023-02-02T10:52:53.289Z,3.87
2023-02-02T10:55:32.583Z,3.80
2023-02-02T10:58:15.526Z,4.13
2023-02-02T11:00:51.321Z,4.03
2023-02-02T11:03:22.860Z,5.33
2023-02-02T11:06:08.798Z,3.87
2023-02-02T11:08:42.530Z,5.43
2023-02-02T11:11:13.349Z,4.80
2023-02-02T11:13:48.225Z,4.83
2023-02-02T11:16:32.674Z,4.87
2023-02-02T11:19:23.868Z,3.53
2023-02-02T11:21:54.233Z,3.67
2023-02-02T11:24:27.598Z,4.23
2023-02-02T11:27:00.096Z,4.70
2023-02-02T11:29:31.326Z,4.87
2023-02-02T11:31:58.816Z,11.90
2023-02-02T11:34:28.360Z,4.90
2023-02-02T11:37:13.902Z,4.37
2023-02-02T11:39:44.044Z,4.70
2023-02-02T11:42:16.678Z,4.33
2023-02-02T11:44:48.578Z,4.03
2023-02-02T11:47:24.691Z,4.33
2023-02-02T11:49:55.781Z,4.17
2023-02-02T11:52:32.310Z,4.90
2023-02-02T11:55:14.539Z,3.30
2023-02-02T11:58:17.243Z,5.20
2023-02-02T12:00:47.835Z,4.43
2023-02-02T12:03:26.937Z,4.70
2023-02-02T12:05:54.243Z,3.70
2023-02-02T12:08:22.140Z,5.43
2023-02-02T12:10:59.333Z,4.13
2023-02-02T12:14:02.852Z,4.20
2023-02-02T12:16:53.689Z,4.60
2023-02-02T12:19:47.474Z,4.87
2023-02-02T12:22:35.578Z,5.07
2023-02-02T12:25:24.285Z,4.23
2023-02-02T12:28:05.584Z,4.43
2023-02-02T12:30:41.432Z,3.30
2023-02-02T12:33:30.541Z,4.50
2023-02-02T12:36:26.112Z,4.17
2023-02-02T12:39:23.081Z,3.80
2023-02-02T12:42:23.606Z,4.27
2023-02-02T12:45:19.575Z,4.93
2023-02-02T12:48:01.853Z,4.53
2023-02-02T12:50:39.624Z,4.30
2023-02-02T12:53:39.685Z,3.73
2023-02-02T12:56:22.768Z,4.40
2023-02-02T12:59:04.653Z,4.27
2023-02-02T13:01:59.990Z,3.90
2023-02-02T13:04:51.953Z,4.43
2023-02-02T13:07:38.390Z,4.53
2023-02-02T13:10:17.333Z,3.90
2023-02-02T13:12:53.721Z,3.60
2023-02-02T13:15:24.763Z,4.10
2023-02-02T13:17:57.073Z,4.13
2023-02-02T13:20:37.215Z,3.80
2023-02-02T13:23:11.236Z,2.93
2023-02-02T13:25:47.015Z,4.13
2023-02-02T13:28:27.989Z,4.27
2023-02-02T13:31:01.313Z,3.40
2023-02-02T13:33:35.945Z,3.90
2023-02-02T13:36:14.876Z,3.37
2023-02-02T13:38:42.489Z,3.40
2023-02-02T13:41:16.812Z,5.00
2023-02-02T13:43:54.400Z,4.20
2023-02-02T13:46:33.274Z,4.37
2023-02-02T13:49:13.257Z,3.40
2023-02-02T13:51:53.616Z,3.57
2023-02-02T13:55:16.002Z,3.03
2023-02-02T13:58:26.824Z,3.87
2023-02-02T14:01:01.771Z,3.30
2023-02-02T14:03:40.319Z,3.43
2023-02-02T14:06:18.919Z,3.67
2023-02-02T14:08:52.665Z,3.83
2023-02-02T14:11:27.253Z,2.70
2023-02-02T14:14:18.243Z,3.53
2023-02-02T14:16:50.221Z,3.67
2023-02-02T14:19:55.362Z,3.73
2023-02-02T14:22:45.531Z,3.03
2023-02-02T14:25:51.522Z,2.87
2023-02-02T14:28:42.945Z,2.67
2023-02-02T14:31:53.147Z,3.20
2023-02-02T14:34:34.933Z,3.47
2023-02-02T14:37:47.324Z,3.20
2023-02-02T14:40:39.078Z,2.83
2023-02-02T14:43:40.573Z,3.27
2023-02-02T14:46:34.834Z,2.60
2023-02-02T14:49:24.063Z,2.60
2023-02-02T14:51:57.946Z,3.60
2023-02-02T14:54:36.045Z,2.93
2023-02-02T14:57:21.172Z,3.60
2023-02-02T14:59:49.656Z,2.63
2023-02-02T15:02:21.916Z,3.23
2023-02-02T15:04:49.626Z,3.20
2023-02-02T15:07:51.299Z,2.97
2023-02-02T15:11:02.035Z,2.60
2023-02-02T15:13:44.632Z,2.97
2023-02-02T15:16:31.945Z,2.80
2023-02-02T15:19:37.702Z,2.80
2023-02-02T15:22:30.275Z,2.60
2023-02-02T15:25:05.080Z,2.57
2023-02-02T15:27:51.380Z,2.90
2023-02-02T15:30:27.041Z,3.10
2023-02-02T15:32:56.064Z,2.27
2023-02-02T15:35:30.096Z,2.90
2023-02-02T15:38:01.334Z,3.00
2023-02-02T15:40:32.169Z,2.90
2023-02-02T15:43:06.131Z,3.47
2023-02-02T15:45:43.532Z,3.23
2023-02-02T15:48:22.141Z,2.80
2023-02-02T15:50:56.764Z,2.63
2023-02-02T15:53:27.674Z,3.10
2023-02-02T15:55:57.383Z,2.93
2023-02-02T15:58:32.300Z,3.30
2023-02-02T16:01:04.233Z,2.70
2023-02-02T16:03:41.915Z,2.63
2023-02-02T16:06:09.852Z,3.20
2023-02-02T16:08:39.697Z,3.73
2023-02-02T16:11:11.983Z,3.60
2023-02-02T16:13:43.880Z,3.87
2023-02-02T16:16:24.482Z,3.30
2023-02-02T16:19:15.588Z,3.43
2023-02-02T16:21:50.925Z,3.63
2023-02-02T16:24:24.263Z,3.90
2023-02-02T16:26:54.280Z,3.37
2023-02-02T16:29:24.388Z,3.50
2023-02-02T16:31:51.592Z,3.43
2023-02-02T16:34:47.033Z,3.23
2023-02-02T16:37:17.016Z,4.07
2023-02-02T16:39:45.654Z,3.73
2023-02-02T16:42:25.536Z,3.63
2023-02-02T16:44:53.159Z,3.83
2023-02-02T16:47:34.761Z,3.00
2023-02-02T16:50:26.655Z,3.43
2023-02-02T16:52:59.223Z,3.20
2023-02-02T16:55:48.788Z,3.10
2023-02-02T16:58:27.202Z,2.23
2023-02-02T17:01:14.992Z,2.30
2023-02-02T17:03:53.105Z,2.60
2023-02-02T17:06:51.737Z,2.70
2023-02-02T17:09:53.591Z,3.03
2023-02-02T17:12:34.465Z,3.17
2023-02-02T17:15:34.679Z,3.00
2023-02-02T17:18:03.344Z,2.50
2023-02-02T17:20:30.808Z,3.00
2023-02-02T17:23:28.862Z,2.93
2023-02-02T17:25:56.491Z,2.63
2023-02-02T17:28:26.158Z,2.10
2023-02-02T17:31:00.907Z,3.53
2023-02-02T17:33:28.667Z,3.07
2023-02-02T17:35:56.626Z,2.23
2023-02-02T17:38:25.799Z,3.27
2023-02-02T17:44:40.322Z,2.47
2023-02-02T17:49:14.800Z,2.80
2023-02-02T17:51:52.318Z,2.77
2023-02-02T17:54:46.998Z,2.93
2023-02-02T17:57:15.324Z,3.10
2023-02-02T17:59:42.177Z,3.13
2023-02-02T18:02:14.640Z,3.33
2023-02-02T18:04:45.433Z,2.93
2023-02-02T18:07:12.588Z,3.20
2023-02-02T18:09:39.424Z,3.17
2023-02-02T18:12:06.828Z,3.40
2023-02-02T18:14:33.658Z,3.10
2023-02-02T18:17:00.544Z,2.73
2023-02-02T18:19:27.716Z,2.87
2023-02-02T18:21:55.879Z,3.83
2023-02-02T18:24:23.024Z,3.23
2023-02-02T18:26:49.960Z,2.87
2023-02-02T18:29:16.845Z,2.90
2023-02-02T18:31:43.811Z,3.17
2023-02-02T18:34:10.852Z,2.90
2023-02-02T18:36:37.741Z,2.70
2023-02-02T18:39:06.154Z,3.33
2023-02-02T18:41:33.078Z,2.77
2023-02-02T18:44:00.013Z,3.20
2023-02-02T18:46:27.023Z,3.47
2023-02-02T18:48:55.574Z,2.93
2023-02-02T18:51:22.442Z,3.00
2023-02-02T18:53:49.705Z,3.53
2023-02-02T18:56:17.948Z,3.47
2023-02-02T18:58:44.850Z,3.47
2023-02-02T19:01:15.307Z,3.23
2023-02-02T19:03:47.002Z,3.57
2023-02-02T19:06:32.196Z,4.07
2023-02-02T19:08:59.104Z,4.03
2023-02-02T19:11:39.121Z,4.33
2023-02-02T19:14:13.586Z,3.70
2023-02-02T19:16:42.086Z,4.20
2023-02-02T19:19:22.892Z,5.10
2023-02-02T19:21:54.556Z,5.07
2023-02-02T19:24:21.769Z,4.57
2023-02-02T19:26:50.907Z,4.57
2023-02-02T19:29:21.332Z,4.83
2023-02-02T19:31:52.579Z,4.97
2023-02-02T19:34:22.226Z,4.20
2023-02-02T19:36:51.064Z,4.63
2023-02-02T19:39:26.902Z,4.70
2023-02-02T19:41:59.767Z,4.73
2023-02-02T19:44:31.302Z,4.53
2023-02-02T19:46:59.838Z,4.33
2023-02-02T19:49:32.692Z,4.20
2023-02-02T19:52:03.681Z,4.67
2023-02-02T19:54:35.145Z,4.60
2023-02-02T19:57:16.794Z,4.70
2023-02-02T19:59:49.795Z,4.60
2023-02-02T20:02:46.145Z,4.37
2023-02-02T20:05:20.628Z,5.13
2023-02-02T20:07:52.158Z,5.10
2023-02-02T20:10:22.845Z,5.20
2023-02-02T20:12:52.214Z,5.90
2023-02-02T20:15:31.993Z,5.47
2023-02-02T20:18:01.727Z,5.93
2023-02-02T20:20:37.522Z,5.93
2023-02-02T20:23:20.030Z,6.70
2023-02-02T20:25:46.947Z,6.50
2023-02-02T20:28:33.984Z,6.93
2023-02-02T20:31:04.806Z,7.60
2023-02-02T20:33:33.168Z,6.87
2023-02-02T20:36:02.447Z,6.43
2023-02-02T20:38:39.137Z,7.40
2023-02-02T20:41:06.298Z,7.50
2023-02-02T20:43:35.710Z,7.30
2023-02-02T20:46:02.854Z,6.93
2023-02-02T20:48:30.291Z,7.20
2023-02-02T20:50:57.266Z,7.20
2023-02-02T20:53:24.134Z,7.00
2023-02-02T20:55:56.646Z,7.60
2023-02-02T20:58:24.112Z,8.17
2023-02-02T21:00:52.460Z,7.63
2023-02-02T21:03:20.142Z,8.47
2023-02-02T21:05:47.321Z,8.37
2023-02-02T21:08:14.169Z,7.37
2023-02-02T21:10:41.078Z,7.80
2023-02-02T21:13:07.935Z,7.90
2023-02-02T21:15:34.786Z,7.83
2023-02-02T21:18:02.961Z,9.83
2023-02-02T21:20:29.928Z,8.13
2023-02-02T21:22:56.783Z,8.90
2023-02-02T21:25:23.664Z,7.60
2023-02-02T21:27:50.547Z,8.23
2023-02-02T21:30:18.359Z,7.57
2023-02-02T21:32:45.462Z,8.50
2023-02-02T21:35:14.976Z,8.97
2023-02-02T21:37:44.014Z,8.43
2023-02-02T21:40:19.345Z,9.43
2023-02-02T21:42:49.415Z,10.67
2023-02-02T21:45:33.469Z,9.83
2023-02-02T21:48:05.045Z,11.70
2023-02-02T21:50:39.924Z,10.53
2023-02-02T21:53:19.975Z,10.30
2023-02-02T21:55:52.791Z,10.23
2023-02-02T21:58:25.456Z,9.43
2023-02-02T22:00:54.052Z,10.57
2023-02-02T22:03:31.739Z,9.80
2023-02-02T22:06:22.782Z,8.70
2023-02-02T22:08:50.855Z,9.57
2023-02-02T22:11:24.901Z,9.13
2023-02-02T22:13:53.900Z,9.17
2023-02-02T22:16:20.929Z,8.13
2023-02-02T22:18:48.260Z,8.73
2023-02-02T22:21:20.581Z,7.23
2023-02-02T22:23:48.024Z,8.07
2023-02-02T22:26:33.112Z,7.03
2023-02-02T22:29:02.393Z,6.83
2023-02-02T22:31:29.316Z,7.80
2023-02-02T22:33:56.213Z,8.43
2023-02-02T22:36:24.450Z,7.10
2023-02-02T22:38:51.388Z,7.03
2023-02-02T22:41:18.420Z,6.70
2023-02-02T22:43:45.311Z,6.77
2023-02-02T22:46:12.192Z,7.33
2023-02-02T22:48:39.084Z,6.33
2023-02-02T22:51:06.115Z,6.40
2023-02-02T22:53:34.599Z,6.40
2023-02-02T22:56:01.458Z,6.87
2023-02-02T22:58:28.307Z,6.50
2023-02-02T23:00:55.871Z,7.53
2023-02-02T23:03:22.796Z,6.67
2023-02-02T23:05:49.675Z,6.93
2023-02-02T23:08:16.520Z,6.50
2023-02-02T23:10:44.697Z,6.60
2023-02-02T23:13:11.588Z,5.80
2023-02-02T23:15:38.571Z,5.87
2023-02-02T23:18:05.587Z,6.03
2023-02-02T23:20:32.761Z,6.07
2023-02-02T23:22:59.641Z,6.23
2023-02-02T23:25:26.537Z,5.77
2023-02-02T23:27:54.863Z,6.20
2023-02-02T23:30:22.117Z,6.00
2023-02-02T23:32:49.023Z,5.70
2023-02-02T23:35:16.093Z,6.30
2023-02-02T23:37:43.019Z,6.30
2023-02-02T23:40:11.982Z,5.80
2023-02-02T23:42:38.920Z,5.60
2023-02-02T23:45:08.529Z,6.10
2023-02-02T23:47:35.607Z,5.77
2023-02-02T23:50:06.364Z,5.87
2023-02-02T23:52:34.725Z,5.57
2023-02-02T23:55:02.732Z,5.73
2023-02-02T23:57:30.482Z,5.37
2023-02-02T23:59:57.439Z,5.77
